Time;durP1;ratioP1;P1;durP2;ratioP2;P2;SDS_P1;SDS_P2;PMS_P1;PMS_P2;Temp;Humidity;BMP_temperature;BMP_pressure;BME280_temperature;BME280_humidity;BME280_pressure;Samples;Min_cycle;Max_cycle;Signal;HPM_P1;HPM_P2
2023/01/09 00:03:23;;;;;;;2.50;2.50;;;;;;;;;;10341478;28;20223;-75
2023/01/09 00:08:24;;;;;;;2.92;2.25;;;;;;;;;;10343449;28;20711;-75
2023/01/09 00:13:25;;;;;;;2.13;1.95;;;;;;;;;;10339312;28;20307;-75
2023/01/09 00:18:26;;;;;;;1.75;1.73;;;;;;;;;;10341908;28;20216;-75
2023/01/09 00:23:27;;;;;;;1.83;1.80;;;;;;;;;;10340768;28;20231;-76
2023/01/09 00:28:28;;;;;;;2.28;1.85;;;;;;;;;;10382268;28;20301;-76
2023/01/09 00:33:31;;;;;;;2.67;1.90;;;;;;;;;;10390360;28;20216;-75
2023/01/09 00:38:32;;;;;;;2.25;2.15;;;;;;;;;;10365834;28;21078;-75
2023/01/09 00:43:36;;;;;;;2.55;2.45;;;;;;;;;;10377179;28;20224;-75
2023/01/09 00:48:39;;;;;;;2.10;2.00;;;;;;;;;;10377889;28;20810;-77
2023/01/09 00:53:41;;;;;;;2.08;2.05;;;;;;;;;;10359229;28;20212;-77
2023/01/09 00:58:42;;;;;;;1.65;1.55;;;;;;;;;;10378738;28;20790;-74
2023/01/09 01:03:43;;;;;;;2.33;2.22;;;;;;;;;;10380730;28;20243;-75
2023/01/09 01:08:44;;;;;;;2.22;2.22;;;;;;;;;;10365539;28;20223;-75
2023/01/09 01:13:46;;;;;;;2.70;2.60;;;;;;;;;;10370723;28;20222;-74
2023/01/09 01:18:47;;;;;;;2.40;2.30;;;;;;;;;;10379299;28;20219;-75
2023/01/09 01:23:48;;;;;;;2.42;2.15;;;;;;;;;;10361133;28;20234;-75
2023/01/09 01:28:49;;;;;;;2.80;2.47;;;;;;;;;;10381147;28;20219;-75
2023/01/09 01:33:50;;;;;;;3.60;2.60;;;;;;;;;;10372239;28;20765;-74
2023/01/09 01:38:51;;;;;;;1.95;1.85;;;;;;;;;;10377033;28;21145;-74
2023/01/09 01:43:54;;;;;;;2.45;2.35;;;;;;;;;;10368132;28;20916;-75
2023/01/09 01:49:07;;;;;;;3.22;3.03;;;;;;;;;;10351014;28;21026;-75
2023/01/09 01:54:10;;;;;;;2.58;2.47;;;;;;;;;;10376126;28;20304;-76
2023/01/09 01:59:26;;;;;;;3.65;3.13;;;;;;;;;;10375425;28;20572;-74
2023/01/09 02:04:28;;;;;;;3.50;3.30;;;;;;;;;;10373519;28;21005;-75
2023/01/09 02:09:29;;;;;;;5.10;3.65;;;;;;;;;;10368869;28;20224;-75
2023/01/09 02:14:31;;;;;;;3.58;3.30;;;;;;;;;;10349043;28;20210;-75
2023/01/09 02:19:51;;;;;;;3.35;3.05;;;;;;;;;;10359707;28;20231;-74
2023/01/09 02:25:02;;;;;;;4.10;3.80;;;;;;;;;;10369084;28;20241;-75
2023/01/09 02:30:12;;;;;;;4.55;4.03;;;;;;;;;;10372331;28;20233;-74
2023/01/09 02:35:22;;;;;;;4.63;4.25;;;;;;;;;;10366082;28;20238;-75
2023/01/09 02:40:26;;;;;;;3.75;3.53;;;;;;;;;;10364162;28;20222;-74
2023/01/09 02:45:27;;;;;;;4.10;3.80;;;;;;;;;;10370914;28;20305;-75
2023/01/09 02:50:35;;;;;;;4.68;3.53;;;;;;;;;;10369669;28;20212;-75
2023/01/09 02:55:45;;;;;;;3.88;3.58;;;;;;;;;;10372737;28;20219;-74
2023/01/09 03:01:06;;;;;;;4.30;4.10;;;;;;;;;;10368712;28;20225;-75
2023/01/09 03:06:15;;;;;;;4.55;3.45;;;;;;;;;;10373660;28;20219;-74
2023/01/09 03:11:16;;;;;;;3.53;3.42;;;;;;;;;;10370152;28;20223;-75
2023/01/09 03:16:20;;;;;;;4.50;4.13;;;;;;;;;;10368397;28;20362;-75
2023/01/09 03:21:22;;;;;;;4.68;4.32;;;;;;;;;;10363205;28;20216;-75
2023/01/09 03:26:23;;;;;;;4.28;3.95;;;;;;;;;;10374786;28;20223;-74
2023/01/09 03:31:24;;;;;;;4.03;3.78;;;;;;;;;;10367898;28;20250;-75
2023/01/09 03:36:25;;;;;;;5.10;4.70;;;;;;;;;;10374910;28;20230;-76
2023/01/09 03:41:26;;;;;;;4.78;4.40;;;;;;;;;;10359346;28;20254;-76
2023/01/09 03:46:27;;;;;;;5.20;4.78;;;;;;;;;;10372027;28;20723;-77
2023/01/09 03:51:28;;;;;;;4.95;4.55;;;;;;;;;;10365916;28;20238;-77
2023/01/09 03:56:29;;;;;;;6.22;5.30;;;;;;;;;;10360599;28;20219;-77
2023/01/09 04:01:31;;;;;;;5.03;4.53;;;;;;;;;;10379294;28;20228;-77
2023/01/09 04:06:32;;;;;;;5.43;4.80;;;;;;;;;;10369535;28;20219;-76
2023/01/09 04:11:33;;;;;;;7.57;5.28;;;;;;;;;;10379544;28;20261;-75
2023/01/09 04:16:34;;;;;;;6.28;5.43;;;;;;;;;;10359286;28;20235;-75
2023/01/09 04:21:35;;;;;;;5.40;4.90;;;;;;;;;;10380615;28;20952;-75
2023/01/09 04:26:36;;;;;;;6.20;5.35;;;;;;;;;;10378795;28;20235;-75
2023/01/09 04:31:37;;;;;;;9.25;5.90;;;;;;;;;;10377471;28;20301;-76
2023/01/09 04:36:39;;;;;;;7.82;5.95;;;;;;;;;;10380222;28;20273;-77
2023/01/09 04:41:49;;;;;;;6.60;5.65;;;;;;;;;;10379192;28;20228;-76
2023/01/09 04:46:50;;;;;;;5.60;5.10;;;;;;;;;;10359625;28;20293;-77
2023/01/09 04:51:52;;;;;;;7.63;5.97;;;;;;;;;;10382544;28;20215;-77
2023/01/09 04:56:53;;;;;;;10.50;6.32;;;;;;;;;;10378552;28;20641;-77
2023/01/09 05:01:54;;;;;;;7.55;6.15;;;;;;;;;;10376243;28;20215;-77
2023/01/09 05:06:56;;;;;;;6.28;5.70;;;;;;;;;;10358724;28;20231;-77
2023/01/09 05:11:57;;;;;;;6.65;5.97;;;;;;;;;;10388687;28;20204;-79
2023/01/09 05:16:58;;;;;;;7.05;5.75;;;;;;;;;;10365874;28;20220;-75
2023/01/09 05:21:59;;;;;;;8.68;6.38;;;;;;;;;;10364858;28;20223;-76
2023/01/09 05:27:01;;;;;;;6.78;5.43;;;;;;;;;;10355037;28;20611;-75
2023/01/09 05:32:02;;;;;;;7.35;5.28;;;;;;;;;;10361207;28;20223;-78
2023/01/09 05:37:03;;;;;;;10.48;6.55;;;;;;;;;;10373379;28;20216;-77
2023/01/09 05:42:04;;;;;;;9.43;6.50;;;;;;;;;;10356437;28;20223;-76
2023/01/09 05:47:05;;;;;;;8.57;6.28;;;;;;;;;;10379063;28;21159;-77
2023/01/09 05:52:07;;;;;;;7.55;6.07;;;;;;;;;;10375171;28;20211;-76
2023/01/09 05:57:08;;;;;;;10.43;6.93;;;;;;;;;;10373777;28;20261;-76
2023/01/09 06:02:09;;;;;;;7.18;5.93;;;;;;;;;;10361636;28;20273;-75
2023/01/09 06:07:10;;;;;;;9.25;5.82;;;;;;;;;;10372390;28;20652;-77
2023/01/09 06:12:11;;;;;;;6.22;5.57;;;;;;;;;;10384133;28;20297;-77
2023/01/09 06:17:12;;;;;;;8.68;5.80;;;;;;;;;;10380013;28;20291;-77
2023/01/09 06:22:13;;;;;;;8.40;6.38;;;;;;;;;;10367489;28;20247;-76
2023/01/09 06:27:14;;;;;;;8.23;6.07;;;;;;;;;;10362898;28;20318;-76
2023/01/09 06:32:15;;;;;;;7.82;5.68;;;;;;;;;;10343330;28;21188;-75
2023/01/09 06:37:16;;;;;;;11.20;6.35;;;;;;;;;;10348235;28;20215;-74
2023/01/09 06:42:17;;;;;;;9.10;6.45;;;;;;;;;;10381475;28;20854;-75
2023/01/09 06:47:18;;;;;;;11.48;7.13;;;;;;;;;;10349235;28;20222;-75
2023/01/09 06:52:19;;;;;;;8.38;6.03;;;;;;;;;;10351187;28;20212;-75
2023/01/09 06:57:20;;;;;;;11.27;6.43;;;;;;;;;;10367551;28;20211;-74
2023/01/09 07:02:21;;;;;;;11.93;7.00;;;;;;;;;;10363957;28;20315;-74
2023/01/09 07:07:23;;;;;;;9.95;6.20;;;;;;;;;;10334594;28;20325;-74
2023/01/09 07:12:24;;;;;;;7.10;5.72;;;;;;;;;;10371622;28;20212;-74
2023/01/09 07:17:25;;;;;;;8.70;6.03;;;;;;;;;;10379387;28;20238;-74
2023/01/09 07:22:26;;;;;;;7.05;5.13;;;;;;;;;;10371544;28;20883;-73
2023/01/09 07:27:27;;;;;;;8.50;5.07;;;;;;;;;;10343620;28;20239;-73
2023/01/09 07:32:28;;;;;;;7.05;5.57;;;;;;;;;;10361470;28;20212;-73
2023/01/09 07:37:29;;;;;;;6.47;5.20;;;;;;;;;;10378676;28;20238;-73
2023/01/09 07:42:30;;;;;;;5.20;4.68;;;;;;;;;;10365279;28;20215;-76
2023/01/09 07:47:31;;;;;;;5.75;4.53;;;;;;;;;;10387300;28;20991;-76
2023/01/09 07:52:32;;;;;;;4.60;4.20;;;;;;;;;;10375216;28;20215;-74
2023/01/09 07:57:34;;;;;;;4.75;3.92;;;;;;;;;;10374973;28;20691;-74
2023/01/09 08:02:35;;;;;;;5.05;4.22;;;;;;;;;;10379340;28;20222;-74
2023/01/09 08:07:36;;;;;;;4.13;3.58;;;;;;;;;;10376008;28;21136;-75
2023/01/09 08:12:37;;;;;;;4.07;3.60;;;;;;;;;;10376694;28;21302;-74
2023/01/09 08:17:41;;;;;;;3.15;2.95;;;;;;;;;;10374604;28;20208;-75
2023/01/09 08:22:43;;;;;;;3.83;3.53;;;;;;;;;;10365040;28;20232;-74
2023/01/09 08:27:44;;;;;;;3.50;3.15;;;;;;;;;;10361349;28;20215;-75
2023/01/09 08:32:49;;;;;;;3.28;2.97;;;;;;;;;;10374100;28;20227;-74
2023/01/09 08:37:50;;;;;;;2.90;2.70;;;;;;;;;;10369948;28;20211;-74
2023/01/09 08:48:11;;;;;;;1.95;1.85;;;;;;;;;;10373771;28;20253;-75
2023/01/09 08:53:12;;;;;;;1.60;1.60;;;;;;;;;;10346465;28;20215;-76
2023/01/09 08:58:13;;;;;;;1.23;1.23;;;;;;;;;;10367060;28;20215;-76
2023/01/09 09:03:14;;;;;;;1.85;0.90;;;;;;;;;;10361871;28;20711;-76
2023/01/09 09:08:15;;;;;;;2.22;1.10;;;;;;;;;;10369459;28;20219;-75
2023/01/09 09:13:16;;;;;;;1.52;0.80;;;;;;;;;;10361813;28;20219;-76
2023/01/09 09:18:17;;;;;;;1.50;0.80;;;;;;;;;;10367287;28;20226;-75
2023/01/09 09:23:18;;;;;;;1.95;0.70;;;;;;;;;;10372555;28;20243;-76
2023/01/09 09:28:19;;;;;;;0.63;0.63;;;;;;;;;;10370966;28;20347;-75
2023/01/09 09:33:20;;;;;;;1.20;1.05;;;;;;;;;;10349110;28;20215;-74
2023/01/09 09:38:21;;;;;;;0.77;0.77;;;;;;;;;;10347649;28;20697;-75
2023/01/09 09:49:17;;;;;;;0.88;0.88;;;;;;;;;;10357608;28;20309;-74
2023/01/09 09:54:20;;;;;;;4.47;0.98;;;;;;;;;;10363523;28;20224;-74
2023/01/09 09:59:23;;;;;;;3.45;1.00;;;;;;;;;;10365204;28;20224;-75
2023/01/09 10:04:26;;;;;;;0.93;0.80;;;;;;;;;;10365999;28;20215;-74
2023/01/09 10:09:37;;;;;;;0.80;0.80;;;;;;;;;;10353149;28;20223;-74
2023/01/09 10:14:39;;;;;;;0.80;0.80;;;;;;;;;;10369864;28;20324;-74
2023/01/09 10:19:55;;;;;;;2.70;1.27;;;;;;;;;;10365251;28;20223;-75
2023/01/09 10:25:21;;;;;;;1.33;1.17;;;;;;;;;;10371051;28;20235;-75
2023/01/09 10:30:23;;;;;;;1.13;0.90;;;;;;;;;;10373059;28;20318;-75
2023/01/09 10:35:43;;;;;;;1.52;0.50;;;;;;;;;;10368779;28;20231;-75
2023/01/09 10:41:16;;;;;;;0.75;0.65;;;;;;;;;;10363158;28;20211;-75
2023/01/09 10:46:29;;;;;;;1.48;0.60;;;;;;;;;;10329437;28;20226;-75
2023/01/09 10:51:43;;;;;;;0.63;0.45;;;;;;;;;;10372726;28;20307;-75
2023/01/09 10:56:47;;;;;;;0.95;0.30;;;;;;;;;;10360322;28;20236;-75
2023/01/09 11:01:48;;;;;;;0.80;0.30;;;;;;;;;;10344079;28;20220;-75
2023/01/09 11:06:52;;;;;;;1.17;0.30;;;;;;;;;;10354303;28;20300;-75
2023/01/09 11:11:53;;;;;;;1.45;0.20;;;;;;;;;;10368310;28;20208;-76
2023/01/09 11:16:56;;;;;;;0.52;0.20;;;;;;;;;;10376244;28;20606;-72
2023/01/09 11:22:08;;;;;;;0.60;0.20;;;;;;;;;;10367270;28;20282;-76
2023/01/09 11:27:22;;;;;;;0.10;0.10;;;;;;;;;;10372547;28;20856;-76
2023/01/09 11:32:24;;;;;;;1.02;0.47;;;;;;;;;;10375824;28;20273;-76
2023/01/09 11:37:28;;;;;;;0.10;0.10;;;;;;;;;;10365232;28;20212;-77
2023/01/09 11:47:49;;;;;;;1.55;0.10;;;;;;;;;;10373237;28;20626;-75
2023/01/09 11:53:10;;;;;;;0.30;0.30;;;;;;;;;;10368807;28;20207;-76
2023/01/09 11:58:15;;;;;;;1.65;0.20;;;;;;;;;;10369263;28;20226;-76
2023/01/09 12:03:25;;;;;;;1.15;0.10;;;;;;;;;;10428425;22;20218;-78
2023/01/09 12:08:45;;;;;;;0.20;0.20;;;;;;;;;;10388638;28;20262;-78
2023/01/09 12:13:47;;;;;;;0.10;0.10;;;;;;;;;;10391653;28;20258;-77
2023/01/09 12:19:11;;;;;;;0.90;0.10;;;;;;;;;;10383752;28;20873;-78
2023/01/09 15:19:08;;;;;;;1.15;0.22;;;;;;;;;;12576328;23;20185;31
2023/01/09 15:24:27;;;;;;;0.20;0.20;;;;;;;;;;10253972;28;20221;-77
2023/01/09 15:29:28;;;;;;;2.05;0.40;;;;;;;;;;10283201;28;20708;-76
2023/01/09 15:34:30;;;;;;;0.20;0.20;;;;;;;;;;10268601;28;20210;-78
2023/01/09 15:39:35;;;;;;;0.20;0.20;;;;;;;;;;10281894;28;20586;-78
2023/01/09 15:44:37;;;;;;;0.20;0.20;;;;;;;;;;10283857;28;20225;-77
2023/01/09 15:49:38;;;;;;;0.70;0.30;;;;;;;;;;10283860;28;20217;-77
2023/01/09 15:54:41;;;;;;;1.75;0.30;;;;;;;;;;10294398;28;20243;-75
2023/01/09 15:59:43;;;;;;;0.40;0.40;;;;;;;;;;10287131;28;20995;-75
2023/01/09 16:04:44;;;;;;;1.05;0.52;;;;;;;;;;10269478;28;20375;-74
2023/01/09 16:09:46;;;;;;;0.40;0.40;;;;;;;;;;10291739;28;20700;-78
2023/01/09 16:14:52;;;;;;;0.40;0.40;;;;;;;;;;10284427;28;20927;-79
2023/01/09 16:19:56;;;;;;;0.30;0.30;;;;;;;;;;10292082;28;20725;-76
2023/01/09 16:24:59;;;;;;;0.30;0.30;;;;;;;;;;10295964;28;20224;-73
2023/01/09 16:30:01;;;;;;;0.30;0.30;;;;;;;;;;10284554;28;20212;-74
2023/01/09 16:35:04;;;;;;;0.60;0.60;;;;;;;;;;10264192;28;20307;-75
2023/01/09 16:40:05;;;;;;;1.67;0.60;;;;;;;;;;10286005;28;20281;-74
2023/01/09 16:45:06;;;;;;;7.82;5.25;;;;;;;;;;10283726;28;20295;-75
2023/01/09 16:50:11;;;;;;;5.45;1.67;;;;;;;;;;10286588;28;20216;-76
2023/01/09 16:55:12;;;;;;;2.15;1.08;;;;;;;;;;10277417;28;20680;-77
2023/01/09 17:00:17;;;;;;;0.60;0.60;;;;;;;;;;10285275;28;20177;-76
2023/01/09 17:05:18;;;;;;;1.05;0.55;;;;;;;;;;10289158;28;20216;-76
2023/01/09 17:10:21;;;;;;;0.80;0.80;;;;;;;;;;10284748;28;20208;-76
2023/01/09 17:15:22;;;;;;;3.13;0.60;;;;;;;;;;10272396;28;20223;-76
2023/01/09 17:20:24;;;;;;;1.90;0.93;;;;;;;;;;10260665;28;20228;-75
2023/01/09 17:30:45;;;;;;;0.75;0.57;;;;;;;;;;10274826;28;20280;-76
2023/01/09 17:35:46;;;;;;;0.50;0.35;;;;;;;;;;10282856;28;20232;-75
2023/01/09 17:40:47;;;;;;;0.30;0.30;;;;;;;;;;10274323;28;20335;-76
2023/01/09 17:45:48;;;;;;;0.43;0.43;;;;;;;;;;10280727;28;20209;-76
2023/01/09 17:50:49;;;;;;;0.50;0.50;;;;;;;;;;10277689;28;20574;-76
2023/01/09 17:55:50;;;;;;;0.50;0.50;;;;;;;;;;10276888;28;20576;-75
2023/01/09 18:00:51;;;;;;;0.98;0.98;;;;;;;;;;10281791;28;20219;-75
2023/01/09 18:05:52;;;;;;;2.60;2.40;;;;;;;;;;10285176;28;20217;-76
2023/01/09 18:10:54;;;;;;;2.80;2.70;;;;;;;;;;10287519;28;20752;-76
2023/01/09 18:15:55;;;;;;;1.45;0.98;;;;;;;;;;10277020;28;20297;-76
2023/01/09 18:20:56;;;;;;;5.38;4.97;;;;;;;;;;10267986;28;21108;-76
2023/01/09 18:25:57;;;;;;;11.27;8.35;;;;;;;;;;10268740;28;20213;-76
2023/01/09 18:30:58;;;;;;;1.00;1.00;;;;;;;;;;10272158;28;20669;-76
2023/01/09 18:36:06;;;;;;;1.05;0.70;;;;;;;;;;10281842;28;20220;-76
2023/01/09 18:41:07;;;;;;;0.60;0.60;;;;;;;;;;10283348;28;20793;-76
2023/01/09 18:46:08;;;;;;;0.80;0.80;;;;;;;;;;10251738;28;20312;-76
2023/01/09 18:51:09;;;;;;;0.90;0.90;;;;;;;;;;10281198;28;20628;-76
2023/01/09 18:56:10;;;;;;;0.88;0.80;;;;;;;;;;10285675;28;20269;-75
2023/01/09 19:01:13;;;;;;;2.08;0.80;;;;;;;;;;10293721;28;20243;-81
2023/01/09 19:06:14;;;;;;;1.90;1.35;;;;;;;;;;10288022;28;20216;-84
2023/01/09 19:11:15;;;;;;;1.17;1.08;;;;;;;;;;10294071;28;20278;-81
2023/01/09 19:16:16;;;;;;;2.35;2.13;;;;;;;;;;10278762;28;20587;-79
2023/01/09 19:21:19;;;;;;;2.42;1.98;;;;;;;;;;10292102;28;20228;-79
2023/01/09 19:26:25;;;;;;;2.45;1.90;;;;;;;;;;10290754;28;20220;-75
2023/01/09 19:31:27;;;;;;;1.40;0.82;;;;;;;;;;10297103;28;20482;-75
2023/01/09 19:36:28;;;;;;;1.15;0.75;;;;;;;;;;10284684;28;20217;-77
2023/01/09 19:41:30;;;;;;;0.50;0.50;;;;;;;;;;10274739;28;20316;-77
2023/01/09 19:46:35;;;;;;;2.55;0.80;;;;;;;;;;10301562;28;20895;-81
2023/01/09 19:51:36;;;;;;;0.40;0.40;;;;;;;;;;10294787;28;20985;-80
2023/01/09 19:56:42;;;;;;;0.60;0.60;;;;;;;;;;10292058;28;20286;-74
2023/01/09 20:01:44;;;;;;;1.05;0.60;;;;;;;;;;10298562;28;20311;-78
2023/01/09 20:06:46;;;;;;;0.88;0.70;;;;;;;;;;10296678;28;20228;-75
2023/01/09 20:11:47;;;;;;;0.85;0.57;;;;;;;;;;10286019;28;20226;-71
2023/01/09 20:16:52;;;;;;;1.63;0.70;;;;;;;;;;10295786;28;20214;-74
2023/01/09 20:21:53;;;;;;;1.70;0.75;;;;;;;;;;10268092;28;20320;-75
2023/01/09 20:26:54;;;;;;;0.65;0.65;;;;;;;;;;10252177;28;20244;-75
2023/01/09 20:31:56;;;;;;;0.75;0.73;;;;;;;;;;10250972;28;20205;-73
2023/01/09 20:36:57;;;;;;;0.70;0.70;;;;;;;;;;10238259;28;20304;-74
2023/01/09 20:41:58;;;;;;;0.80;0.80;;;;;;;;;;10243591;28;20239;-76
2023/01/09 20:46:59;;;;;;;0.80;0.80;;;;;;;;;;10239935;28;20218;-75
2023/01/09 20:52:00;;;;;;;3.25;0.90;;;;;;;;;;10222656;28;20221;-76
2023/01/09 20:57:01;;;;;;;1.00;0.70;;;;;;;;;;10249435;28;20218;-79
2023/01/09 21:02:02;;;;;;;2.33;0.93;;;;;;;;;;10240954;28;20215;-80
2023/01/09 21:07:03;;;;;;;0.80;0.80;;;;;;;;;;10243656;28;20217;-79
2023/01/09 21:12:23;;;;;;;0.70;0.70;;;;;;;;;;10261445;28;20218;-78
2023/01/09 21:17:24;;;;;;;0.68;0.68;;;;;;;;;;10255941;28;20221;-79
2023/01/09 21:22:25;;;;;;;1.30;0.82;;;;;;;;;;10280460;28;20234;-79
2023/01/09 21:27:35;;;;;;;1.30;0.88;;;;;;;;;;10296853;28;20232;-78
2023/01/09 21:32:37;;;;;;;1.25;1.25;;;;;;;;;;10287714;28;20202;-79
2023/01/09 21:37:38;;;;;;;1.10;1.10;;;;;;;;;;10298855;28;20292;-79
2023/01/09 21:48:02;;;;;;;2.03;1.92;;;;;;;;;;10302884;28;20219;-79
2023/01/09 21:53:03;;;;;;;2.53;1.70;;;;;;;;;;10284158;28;20209;-79
2023/01/09 21:58:05;;;;;;;5.20;1.77;;;;;;;;;;10294268;28;20216;-77
2023/01/09 22:03:08;;;;;;;2.05;1.95;;;;;;;;;;10297810;28;20417;-76
2023/01/09 22:08:09;;;;;;;1.75;1.65;;;;;;;;;;10298906;28;20229;-76
2023/01/09 22:13:14;;;;;;;5.38;2.22;;;;;;;;;;10293253;28;20213;-77
2023/01/09 22:18:16;;;;;;;2.25;2.15;;;;;;;;;;10299781;28;20221;-78
2023/01/09 22:23:17;;;;;;;2.55;2.35;;;;;;;;;;10298814;28;20236;-79
2023/01/09 22:28:18;;;;;;;3.30;2.03;;;;;;;;;;10295275;28;21080;-79
2023/01/09 22:33:20;;;;;;;2.22;2.10;;;;;;;;;;10295970;28;20221;-78
2023/01/09 22:38:21;;;;;;;1.85;1.75;;;;;;;;;;10299008;28;20647;-81
2023/01/09 22:43:23;;;;;;;1.67;1.63;;;;;;;;;;10299204;28;20231;-80
2023/01/09 22:48:27;;;;;;;2.40;2.05;;;;;;;;;;10297702;28;20210;-79
2023/01/09 22:53:28;;;;;;;2.80;2.08;;;;;;;;;;10293993;28;20214;-78
2023/01/09 22:58:30;;;;;;;4.50;2.80;;;;;;;;;;10298652;28;20744;-77
2023/01/09 23:03:31;;;;;;;2.15;2.00;;;;;;;;;;10294988;28;20216;-80
2023/01/09 23:08:33;;;;;;;2.70;2.50;;;;;;;;;;10305809;28;20228;-78
2023/01/09 23:13:34;;;;;;;3.17;2.72;;;;;;;;;;10303940;28;20694;-79
2023/01/09 23:18:35;;;;;;;3.03;2.75;;;;;;;;;;10300148;28;20224;-79
2023/01/09 23:23:36;;;;;;;8.02;2.90;;;;;;;;;;10302649;28;20274;-77
2023/01/09 23:28:37;;;;;;;3.47;3.22;;;;;;;;;;10299410;28;20759;-82
2023/01/09 23:33:38;;;;;;;4.05;3.40;;;;;;;;;;10301958;28;20213;-78
2023/01/09 23:38:39;;;;;;;3.92;3.28;;;;;;;;;;10302948;28;20283;-77
2023/01/09 23:43:41;;;;;;;3.90;2.17;;;;;;;;;;10299309;28;20220;-79
2023/01/09 23:48:42;;;;;;;2.95;2.65;;;;;;;;;;10300677;28;20220;-77
2023/01/09 23:53:43;;;;;;;4.55;2.38;;;;;;;;;;10300801;28;20210;-78
2023/01/09 23:58:44;;;;;;;5.68;2.13;;;;;;;;;;10303105;28;20223;-81
